Time;durP1;ratioP1;P1;durP2;ratioP2;P2;SDS_P1;SDS_P2;PMS_P1;PMS_P2;Temp;Humidity;BMP_temperature;BMP_pressure;BME280_temperature;BME280_humidity;BME280_pressure;Samples;Min_cycle;Max_cycle;Signal;HPM_P1;HPM_P2
2022/11/10 00:02:31;;;;;;;33.83;21.43;;;;;;;10.36;72.53;97760.69;5047275;28;20225;-77
2022/11/10 00:05:16;;;;;;;33.27;20.57;;;;;;;10.37;72.71;97767.53;5048234;28;20610;-77
2022/11/10 00:08:06;;;;;;;37.13;20.93;;;;;;;10.19;72.78;97762.97;5046603;28;20194;-77
2022/11/10 00:10:57;;;;;;;35.30;20.60;;;;;;;10.00;72.69;97764.41;5046969;28;20198;-78
2022/11/10 00:17:00;;;;;;;34.17;21.10;;;;;;;9.78;73.10;97766.84;5046294;28;20197;-77
2022/11/10 00:19:46;;;;;;;32.90;20.50;;;;;;;9.66;73.73;97759.47;5046008;28;20197;-76
2022/11/10 00:22:33;;;;;;;32.10;20.17;;;;;;;9.73;73.27;97760.09;5047444;28;20217;-76
2022/11/10 00:25:18;;;;;;;37.47;21.40;;;;;;;9.59;73.55;97754.50;5046590;28;20332;-77
2022/11/10 00:28:03;;;;;;;39.43;22.47;;;;;;;9.49;74.30;97753.94;5047155;28;20189;-76
2022/11/10 00:30:48;;;;;;;34.23;22.10;;;;;;;9.49;74.67;97756.53;5047890;28;20243;-77
2022/11/10 00:33:35;;;;;;;37.27;22.87;;;;;;;9.26;75.84;97758.94;5045860;28;20222;-76
2022/11/10 00:36:20;;;;;;;34.67;22.70;;;;;;;9.36;74.96;97755.19;5047368;28;20182;-77
2022/11/10 00:39:06;;;;;;;36.00;21.63;;;;;;;9.32;74.38;97756.19;5047152;28;20250;-76
2022/11/10 00:41:51;;;;;;;33.40;21.83;;;;;;;9.44;74.73;97754.97;5045875;28;20229;-77
2022/11/10 00:44:37;;;;;;;35.57;22.37;;;;;;;9.51;74.37;97752.16;5047381;28;20234;-76
2022/11/10 00:47:22;;;;;;;33.20;22.03;;;;;;;9.51;74.55;97744.41;5046373;28;20246;-77
2022/11/10 00:50:07;;;;;;;35.57;23.37;;;;;;;9.48;74.57;97748.84;5046204;28;20200;-76
2022/11/10 00:52:53;;;;;;;42.00;22.23;;;;;;;9.39;74.70;97744.78;5047180;28;20198;-76
2022/11/10 00:55:40;;;;;;;33.37;21.43;;;;;;;9.35;74.79;97745.78;5045926;28;20182;-76
2022/11/10 00:58:25;;;;;;;38.60;22.33;;;;;;;9.25;74.92;97744.34;5046738;28;20223;-76
2022/11/10 01:01:11;;;;;;;31.33;19.73;;;;;;;9.13;75.55;97742.09;5047110;28;20286;-76
2022/11/10 01:03:56;;;;;;;37.60;21.83;;;;;;;8.93;75.56;97727.19;5045560;28;20185;-76
2022/11/10 01:06:41;;;;;;;31.20;20.93;;;;;;;8.80;76.79;97736.16;5047001;28;20272;-73
2022/11/10 01:09:26;;;;;;;38.90;22.60;;;;;;;8.67;77.01;97745.13;5046960;28;20208;-73
2022/11/10 01:12:13;;;;;;;37.87;21.27;;;;;;;8.76;76.02;97736.25;5045738;28;20196;-74
2022/11/10 01:14:58;;;;;;;33.10;20.00;;;;;;;8.82;76.95;97738.72;5046918;28;20237;-73
2022/11/10 01:17:43;;;;;;;33.80;20.53;;;;;;;8.85;75.98;97730.84;5046441;28;20189;-74
2022/11/10 01:20:29;;;;;;;31.60;21.07;;;;;;;8.90;76.38;97734.19;5046173;28;20240;-73
2022/11/10 01:23:14;;;;;;;35.80;22.83;;;;;;;8.71;77.40;97735.56;5046832;28;20190;-73
2022/11/10 01:26:05;;;;;;;38.23;21.17;;;;;;;8.54;77.99;97727.41;5045822;28;20316;-76
2022/11/10 01:28:50;;;;;;;31.70;21.73;;;;;;;8.45;77.85;97727.69;5046257;28;20191;-73
2022/11/10 01:31:36;;;;;;;37.23;22.30;;;;;;;8.63;77.98;97729.75;5047163;28;20203;-73
2022/11/10 01:34:21;;;;;;;39.43;23.87;;;;;;;8.72;78.11;97719.16;5049352;28;20178;-74
2022/11/10 01:37:06;;;;;;;36.73;24.10;;;;;;;8.70;77.32;97714.06;5050724;28;20323;-74
2022/11/10 01:39:52;;;;;;;35.33;23.07;;;;;;;8.96;77.56;97731.41;5050450;28;20209;-74
2022/11/10 01:42:50;;;;;;;34.40;21.90;;;;;;;9.13;75.97;97733.53;5049013;28;20233;-74
2022/11/10 01:45:55;;;;;;;34.03;22.27;;;;;;;9.06;75.56;97732.84;5050283;28;20228;-75
2022/11/10 01:48:59;;;;;;;33.77;21.47;;;;;;;9.03;74.51;97718.28;5050242;28;20197;-74
2022/11/10 01:51:56;;;;;;;32.23;20.27;;;;;;;9.05;74.37;97730.31;5049211;28;20190;-74
2022/11/10 01:54:47;;;;;;;33.60;21.17;;;;;;;8.98;74.54;97716.72;5049721;28;20202;-74
2022/11/10 01:57:34;;;;;;;31.33;20.47;;;;;;;9.12;74.10;97726.66;5050403;28;20209;-74
2022/11/10 02:00:20;;;;;;;36.70;21.30;;;;;;;8.94;74.66;97730.63;5048849;28;20186;-75
2022/11/10 02:03:10;;;;;;;34.03;22.70;;;;;;;8.75;76.21;97732.00;5049953;28;20222;-74
2022/11/10 02:05:56;;;;;;;35.83;23.77;;;;;;;8.80;75.89;97724.97;5050010;28;20197;-74
2022/11/10 02:08:43;;;;;;;34.83;22.70;;;;;;;8.78;76.50;97721.56;5048549;28;20189;-76
2022/11/10 02:11:29;;;;;;;33.30;21.53;;;;;;;8.84;75.30;97721.44;5049811;28;20189;-74
2022/11/10 02:14:15;;;;;;;33.93;20.83;;;;;;;8.49;73.52;97714.63;5049557;28;20562;-74
2022/11/10 02:17:00;;;;;;;35.20;22.50;;;;;;;8.44;73.40;97725.97;5048617;28;20200;-75
2022/11/10 02:19:45;;;;;;;34.50;20.83;;;;;;;8.47;75.29;97731.06;5049604;28;20601;-73
2022/11/10 02:22:31;;;;;;;35.77;21.60;;;;;;;8.43;75.19;97724.28;5048846;28;20220;-76
2022/11/10 02:25:20;;;;;;;33.80;21.00;;;;;;;8.37;75.08;97719.25;5048884;28;20182;-73
2022/11/10 02:28:05;;;;;;;38.23;22.07;;;;;;;8.26;75.18;97722.16;5049911;28;20199;-74
2022/11/10 02:30:51;;;;;;;41.40;27.17;;;;;;;8.29;75.38;97718.63;5048494;28;20210;-75
2022/11/10 02:33:36;;;;;;;33.40;21.33;;;;;;;8.34;76.23;97724.53;5049528;28;20236;-76
2022/11/10 02:36:21;;;;;;;32.87;21.40;;;;;;;8.35;75.63;97718.47;5049427;28;20271;-77
2022/11/10 02:39:07;;;;;;;37.00;22.20;;;;;;;8.37;76.26;97727.00;5048055;28;20677;-76
2022/11/10 02:41:52;;;;;;;36.17;24.13;;;;;;;8.42;75.73;97727.75;5049540;28;20217;-77
2022/11/10 02:44:39;;;;;;;43.27;26.03;;;;;;;8.42;74.03;97727.75;5048903;28;20250;-75
2022/11/10 02:47:24;;;;;;;47.70;26.30;;;;;;;8.40;73.94;97720.06;5047907;28;20186;-75
2022/11/10 02:50:09;;;;;;;35.70;22.30;;;;;;;8.39;73.39;97733.00;5049248;28;20578;-74
2022/11/10 02:52:54;;;;;;;37.37;23.10;;;;;;;8.30;73.50;97733.22;5048467;28;20246;-75
2022/11/10 02:55:40;;;;;;;37.37;22.90;;;;;;;8.34;73.67;97740.84;5047973;28;20216;-75
2022/11/10 02:58:25;;;;;;;41.57;23.30;;;;;;;8.13;74.20;97731.91;5049247;28;20265;-75
2022/11/10 03:01:11;;;;;;;37.90;22.70;;;;;;;8.15;73.87;97745.59;5047658;28;20346;-75
2022/11/10 03:03:56;;;;;;;34.53;21.47;;;;;;;8.20;73.96;97750.66;5048654;28;20336;-74
2022/11/10 03:06:41;;;;;;;40.17;22.00;;;;;;;8.13;74.83;97743.94;5048907;28;20200;-75
2022/11/10 03:09:26;;;;;;;35.33;21.20;;;;;;;8.01;75.11;97739.94;5047539;28;20200;-74
2022/11/10 03:12:11;;;;;;;32.97;21.57;;;;;;;7.64;76.97;97749.44;5048769;28;20195;-75
2022/11/10 03:14:57;;;;;;;37.63;22.00;;;;;;;7.62;77.59;97737.44;5048546;28;20198;-74
2022/11/10 03:17:42;;;;;;;38.20;23.03;;;;;;;7.52;79.36;97741.13;5047310;28;20200;-75
2022/11/10 03:20:27;;;;;;;38.27;22.67;;;;;;;7.63;78.65;97740.00;5048765;28;20185;-74
2022/11/10 03:23:12;;;;;;;41.27;25.17;;;;;;;7.15;80.43;97741.09;5047625;28;20293;-74
2022/11/10 03:25:58;;;;;;;45.63;27.60;;;;;;;6.87;82.90;97745.06;5079663;28;20202;-74
2022/11/10 03:28:43;;;;;;;44.87;26.30;;;;;;;6.77;84.14;97748.72;5048546;28;20199;-74
2022/11/10 03:31:28;;;;;;;58.77;32.50;;;;;;;6.74;84.83;97749.63;5047073;28;20196;-74
2022/11/10 03:34:14;;;;;;;60.53;32.13;;;;;;;6.89;84.03;97743.31;5047947;28;20200;-74
2022/11/10 03:36:59;;;;;;;47.40;29.80;;;;;;;6.89;84.50;97749.31;5048275;28;20207;-74
2022/11/10 03:39:44;;;;;;;48.70;30.37;;;;;;;7.06;84.35;97749.00;5045820;28;20198;-76
2022/11/10 03:42:30;;;;;;;55.63;30.07;;;;;;;7.26;83.75;97750.28;5047988;28;20231;-76
2022/11/10 03:45:15;;;;;;;47.17;28.27;;;;;;;7.38;82.61;97750.00;5080271;28;20188;-76
2022/11/10 03:48:01;;;;;;;48.60;29.97;;;;;;;7.35;81.80;97747.50;5046733;28;20340;-77
2022/11/10 03:50:46;;;;;;;59.97;31.87;;;;;;;7.25;83.05;97747.72;5048085;28;20251;-77
2022/11/10 03:53:31;;;;;;;58.07;31.73;;;;;;;7.22;82.28;97743.50;5047239;28;20255;-76
2022/11/10 03:56:17;;;;;;;50.27;30.10;;;;;;;7.13;81.64;97738.50;5046230;28;20765;-77
2022/11/10 03:59:02;;;;;;;53.53;30.40;;;;;;;7.21;80.43;97746.09;5047982;28;20200;-75
2022/11/10 04:01:47;;;;;;;47.63;28.60;;;;;;;7.39;80.06;97746.56;5046536;28;20618;-75
2022/11/10 04:10:41;;;;;;;44.43;26.53;;;;;;;7.82;76.56;97750.72;5046810;28;20203;-76
2022/11/10 04:16:30;;;;;;;47.40;27.03;;;;;;;7.82;76.93;97740.41;5047849;28;20595;-77
2022/11/10 04:19:16;;;;;;;44.00;26.30;;;;;;;7.91;77.99;97748.75;5059612;28;20680;-77
2022/11/10 04:22:01;;;;;;;48.87;26.63;;;;;;;7.90;77.80;97752.25;5046716;28;20228;-76
2022/11/10 04:24:47;;;;;;;45.70;25.70;;;;;;;7.91;75.45;97751.34;5045291;28;20557;-77
2022/11/10 04:27:32;;;;;;;46.63;27.97;;;;;;;7.91;76.15;97750.50;5046243;28;20211;-76
2022/11/10 04:30:18;;;;;;;43.67;24.67;;;;;;;7.89;76.48;97760.03;5046631;28;20305;-75
2022/11/10 04:33:03;;;;;;;44.63;25.50;;;;;;;7.81;76.86;97755.03;5044849;28;20230;-76
2022/11/10 04:35:49;;;;;;;44.63;25.10;;;;;;;7.60;77.54;97750.38;5044972;28;20208;-75
2022/11/10 04:38:34;;;;;;;47.50;26.67;;;;;;;7.47;77.75;97753.25;5047448;28;20696;-77
2022/11/10 04:41:21;;;;;;;46.77;25.57;;;;;;;7.42;77.89;97748.19;5047057;28;20287;-77
2022/11/10 04:44:07;;;;;;;50.30;26.50;;;;;;;7.37;76.48;97757.78;5046200;28;20201;-77
2022/11/10 04:46:52;;;;;;;49.30;27.70;;;;;;;7.34;76.12;97760.41;5046108;28;20229;-77
2022/11/10 04:49:38;;;;;;;49.13;26.50;;;;;;;6.93;75.26;97758.69;5046215;28;20217;-77
2022/11/10 04:52:23;;;;;;;50.73;27.53;;;;;;;6.57;74.68;97749.94;5046525;28;20200;-76
2022/11/10 04:55:08;;;;;;;61.93;29.00;;;;;;;6.38;75.75;97766.59;5047153;28;20191;-77
2022/11/10 04:57:54;;;;;;;52.77;28.63;;;;;;;6.30;77.59;97759.91;5045943;28;20267;-75
2022/11/10 05:00:40;;;;;;;52.13;27.57;;;;;;;6.57;77.28;97759.41;5046692;28;20183;-73
2022/11/10 05:03:26;;;;;;;55.17;28.53;;;;;;;6.62;77.81;97743.84;5066306;28;20247;-73
2022/11/10 05:06:11;;;;;;;46.83;25.17;;;;;;;6.66;77.44;97766.94;5066635;28;20587;-75
2022/11/10 05:08:57;;;;;;;48.37;25.27;;;;;;;6.64;77.30;97766.13;5071203;28;20221;-75
2022/11/10 05:11:42;;;;;;;48.67;27.03;;;;;;;6.76;79.35;97770.19;5070487;28;20312;-75
2022/11/10 05:14:27;;;;;;;46.53;24.93;;;;;;;6.63;78.62;97768.72;5069777;28;20269;-74
2022/11/10 05:17:12;;;;;;;42.80;24.63;;;;;;;6.65;79.03;97772.13;5070880;28;20202;-75
2022/11/10 05:19:57;;;;;;;45.50;25.30;;;;;;;6.74;78.66;97774.53;5069605;28;20715;-75
2022/11/10 05:23:36;;;;;;;52.47;28.27;;;;;;;6.58;78.01;97771.38;5070023;28;20381;-76
2022/11/10 05:25:53;;;;;;;51.57;28.03;;;;;;;6.67;78.56;97783.22;5062839;28;20211;-75
2022/11/10 05:28:40;;;;;;;54.57;29.17;;;;;;;6.54;79.73;97791.19;5040724;28;21035;-73
2022/11/10 05:31:25;;;;;;;55.40;28.87;;;;;;;6.49;81.17;97790.41;5049533;28;20195;-74
2022/11/10 05:34:10;;;;;;;42.63;26.33;;;;;;;6.81;80.46;97787.25;5050735;28;20203;-74
2022/11/10 05:36:56;;;;;;;62.63;35.47;;;;;;;6.80;80.08;97795.81;5049326;28;20361;-74
2022/11/10 05:39:41;;;;;;;51.83;29.50;;;;;;;6.83;80.62;97790.63;5049025;28;20207;-74
2022/11/10 05:42:27;;;;;;;45.33;25.60;;;;;;;6.95;80.09;97792.13;5050008;28;20214;-74
2022/11/10 05:45:13;;;;;;;44.93;25.33;;;;;;;6.78;80.05;97797.59;5080852;28;20195;-75
2022/11/10 05:47:59;;;;;;;48.97;27.60;;;;;;;7.08;80.57;97793.59;5050036;28;20192;-75
2022/11/10 05:50:44;;;;;;;52.87;27.67;;;;;;;7.07;79.74;97794.44;5049937;28;20283;-76
2022/11/10 05:53:30;;;;;;;41.67;25.10;;;;;;;6.97;80.72;97798.09;5048629;28;20250;-75
2022/11/10 05:56:15;;;;;;;54.73;30.00;;;;;;;7.03;79.87;97803.09;5049834;28;20197;-75
2022/11/10 05:59:00;;;;;;;55.97;28.63;;;;;;;6.99;79.84;97812.63;5049093;28;20196;-73
2022/11/10 06:01:46;;;;;;;55.60;28.83;;;;;;;7.17;79.93;97816.59;5048066;28;20221;-75
2022/11/10 06:04:31;;;;;;;46.37;26.47;;;;;;;7.08;79.61;97816.75;5048584;28;20197;-74
2022/11/10 06:07:17;;;;;;;45.60;25.57;;;;;;;7.09;80.15;97823.63;5048502;28;20702;-75
2022/11/10 06:10:03;;;;;;;50.13;26.00;;;;;;;6.90;79.49;97823.13;5049412;28;20200;-74
2022/11/10 06:12:49;;;;;;;41.67;25.17;;;;;;;6.54;80.83;97816.06;5049594;28;20187;-74
2022/11/10 06:15:35;;;;;;;46.03;24.83;;;;;;;6.87;81.25;97837.75;5048298;28;20218;-73
2022/11/10 06:18:20;;;;;;;49.27;25.50;;;;;;;6.92;81.66;97841.09;5048654;28;20654;-74
2022/11/10 06:21:05;;;;;;;72.60;25.33;;;;;;;6.42;81.89;97835.13;5047867;28;20188;-74
2022/11/10 06:23:51;;;;;;;60.53;27.20;;;;;;;6.14;83.67;97839.00;5048047;28;20238;-74
2022/11/10 06:26:36;;;;;;;46.60;26.47;;;;;;;6.16;84.22;97821.81;5049046;28;20675;-74
2022/11/10 06:29:22;;;;;;;41.37;24.73;;;;;;;6.72;83.71;97835.47;5048034;28;20344;-74
2022/11/10 06:32:11;;;;;;;57.13;27.30;;;;;;;7.12;83.03;97841.56;5047970;28;20711;-75
2022/11/10 06:34:56;;;;;;;48.17;25.43;;;;;;;7.22;80.59;97840.50;5062151;28;20269;-74
2022/11/10 06:37:45;;;;;;;53.97;27.33;;;;;;;7.24;80.79;97844.75;5047587;28;20212;-75
2022/11/10 06:40:31;;;;;;;50.70;24.93;;;;;;;7.44;79.23;97839.19;5048499;28;20206;-75
2022/11/10 06:43:16;;;;;;;46.30;23.30;;;;;;;6.98;79.89;97833.25;5081255;28;20665;-75
2022/11/10 06:46:02;;;;;;;54.37;29.47;;;;;;;6.95;81.02;97851.34;5047659;28;20254;-76
2022/11/10 06:48:47;;;;;;;60.77;29.27;;;;;;;7.02;81.08;97847.78;5048676;28;20236;-74
2022/11/10 06:51:33;;;;;;;60.93;30.87;;;;;;;7.28;80.29;97848.97;5048655;28;20362;-74
2022/11/10 06:54:19;;;;;;;51.60;26.57;;;;;;;7.33;80.50;97838.59;5060109;28;20200;-74
2022/11/10 06:57:04;;;;;;;56.87;28.00;;;;;;;7.45;79.51;97833.19;5049121;28;20679;-74
2022/11/10 06:59:50;;;;;;;59.20;26.43;;;;;;;7.25;79.54;97840.47;5047748;28;20676;-75
2022/11/10 07:02:35;;;;;;;62.27;28.27;;;;;;;7.42;81.57;97843.53;5047355;28;20234;-75
2022/11/10 07:05:20;;;;;;;63.43;29.00;;;;;;;7.46;80.76;97850.31;5048507;28;20289;-76
2022/11/10 07:08:15;;;;;;;52.70;27.97;;;;;;;7.29;81.37;97858.38;5060196;28;20770;-75
2022/11/10 07:11:00;;;;;;;50.83;28.97;;;;;;;7.16;81.82;97854.38;5047604;28;20655;-74
2022/11/10 07:13:45;;;;;;;51.10;29.13;;;;;;;6.99;83.20;97855.53;5048177;28;20285;-74
2022/11/10 07:16:31;;;;;;;56.77;28.27;;;;;;;7.12;84.11;97854.44;5046828;28;20193;-74
2022/11/10 07:19:17;;;;;;;42.40;25.00;;;;;;;7.58;81.67;97857.81;5080117;28;20197;-75
2022/11/10 07:22:02;;;;;;;37.80;22.30;;;;;;;7.81;80.47;97849.59;5047835;28;20726;-75
2022/11/10 07:24:56;;;;;;;42.77;25.20;;;;;;;7.62;80.64;97848.28;5047072;28;20336;-75
2022/11/10 07:27:42;;;;;;;37.87;23.03;;;;;;;7.85;80.30;97854.63;5047791;28;20199;-75
2022/11/10 07:30:29;;;;;;;35.20;22.10;;;;;;;7.83;80.35;97850.41;5047519;28;20664;-75
2022/11/10 07:33:14;;;;;;;39.50;23.93;;;;;;;8.04;79.56;97843.03;5046699;28;20585;-75
2022/11/10 07:36:05;;;;;;;40.53;24.47;;;;;;;8.06;78.64;97846.41;5047836;28;20219;-74
2022/11/10 07:38:51;;;;;;;40.47;23.23;;;;;;;8.09;78.89;97841.19;5047013;28;20657;-74
2022/11/10 07:41:36;;;;;;;39.23;24.30;;;;;;;8.42;78.56;97844.75;5046868;28;21057;-74
2022/11/10 07:44:21;;;;;;;39.97;23.00;;;;;;;8.56;77.98;97850.41;5047413;28;20239;-73
2022/11/10 07:47:07;;;;;;;39.40;23.67;;;;;;;8.84;76.88;97843.63;5046013;28;20202;-75
2022/11/10 07:49:52;;;;;;;41.30;25.40;;;;;;;9.20;76.43;97849.56;5046755;28;20295;-75
2022/11/10 07:52:37;;;;;;;40.03;24.90;;;;;;;9.54;76.13;97841.72;5047349;28;20200;-75
2022/11/10 07:55:23;;;;;;;44.67;24.90;;;;;;;9.74;74.27;97842.00;5058575;28;20198;-76
2022/11/10 07:58:10;;;;;;;37.93;23.43;;;;;;;10.10;73.34;97838.31;5078741;28;20282;-74
2022/11/10 08:00:56;;;;;;;36.90;21.73;;;;;;;10.09;72.57;97830.56;5046929;28;20198;-74
2022/11/10 08:03:41;;;;;;;39.23;23.93;;;;;;;10.31;72.59;97826.44;5045302;28;20213;-75
2022/11/10 08:06:27;;;;;;;38.20;23.30;;;;;;;10.55;71.87;97833.41;5046737;28;20182;-75
2022/11/10 08:09:16;;;;;;;40.50;23.63;;;;;;;10.82;71.70;97842.00;5046218;28;20243;-75
2022/11/10 08:12:01;;;;;;;37.23;23.17;;;;;;;10.86;70.58;97839.25;5045742;28;20188;-75
2022/11/10 08:14:47;;;;;;;37.93;23.40;;;;;;;11.02;70.52;97839.56;5046472;28;20742;-74
2022/11/10 08:17:32;;;;;;;32.70;22.20;;;;;;;11.15;70.39;97840.81;5044325;28;20204;-74
2022/11/10 08:20:18;;;;;;;36.77;22.50;;;;;;;11.32;69.33;97847.13;5046264;28;20174;-74
2022/11/10 08:23:05;;;;;;;34.83;24.23;;;;;;;11.35;69.32;97825.44;5046741;28;20220;-74
2022/11/10 08:25:52;;;;;;;39.07;21.97;;;;;;;11.48;68.97;97842.22;5058112;28;20831;-75
2022/11/10 08:28:37;;;;;;;34.90;21.30;;;;;;;11.60;69.57;97834.00;5046531;28;20657;-76
2022/11/10 08:31:23;;;;;;;39.13;21.27;;;;;;;11.75;68.21;97846.41;5046264;28;20699;-77
2022/11/10 08:34:08;;;;;;;31.40;21.47;;;;;;;11.82;68.28;97842.69;5045222;28;20273;-75
2022/11/10 08:36:54;;;;;;;40.20;22.43;;;;;;;11.87;68.14;97848.53;5046288;28;20567;-76
2022/11/10 08:39:39;;;;;;;40.60;24.73;;;;;;;11.83;68.07;97852.16;5045866;28;20188;-75
2022/11/10 08:42:25;;;;;;;40.87;25.73;;;;;;;11.62;69.18;97828.75;5044863;28;20198;-75
2022/11/10 08:45:10;;;;;;;40.87;24.73;;;;;;;11.70;69.25;97837.97;5046313;28;20302;-75
2022/11/10 08:48:22;;;;;;;53.47;26.50;;;;;;;11.94;68.76;97843.97;5045162;28;20204;-76
2022/11/10 08:51:08;;;;;;;47.07;27.87;;;;;;;11.93;68.66;97845.72;5071897;28;20578;-75
2022/11/10 08:53:54;;;;;;;48.93;29.07;;;;;;;11.72;69.47;97853.47;5046367;28;20714;-76
2022/11/10 08:56:39;;;;;;;55.33;31.47;;;;;;;11.75;69.40;97848.16;5045174;28;20863;-76
2022/11/10 08:59:25;;;;;;;53.57;28.57;;;;;;;11.81;69.82;97843.59;5044244;28;20189;-76
2022/11/10 09:02:10;;;;;;;46.93;26.80;;;;;;;11.98;68.45;97840.34;5046175;28;20668;-75
2022/11/10 09:04:56;;;;;;;42.90;24.27;;;;;;;12.12;67.58;97838.06;5044819;28;20376;-75
2022/11/10 09:07:44;;;;;;;43.90;26.10;;;;;;;12.12;68.39;97844.09;5045850;28;20195;-76
2022/11/10 09:10:30;;;;;;;50.80;26.40;;;;;;;12.20;67.78;97830.81;5045991;28;20199;-76
2022/11/10 09:13:16;;;;;;;45.20;25.27;;;;;;;12.14;67.87;97836.25;5043578;28;20279;-75
2022/11/10 09:16:04;;;;;;;44.43;24.30;;;;;;;11.95;68.60;97798.97;5045828;28;20206;-75
2022/11/10 09:18:49;;;;;;;42.47;22.97;;;;;;;11.99;68.54;97836.88;5046024;28;20187;-74
2022/11/10 09:21:34;;;;;;;44.53;24.07;;;;;;;12.07;69.17;97830.47;5044481;28;20198;-75
2022/11/10 09:24:20;;;;;;;36.00;22.10;;;;;;;12.32;68.86;97822.56;5045850;28;20217;-77
2022/11/10 09:27:06;;;;;;;33.27;20.50;;;;;;;12.35;68.89;97830.22;5058192;28;20188;-76
2022/11/10 09:29:51;;;;;;;34.03;20.10;;;;;;;12.50;68.63;97827.00;5044752;28;20191;-74
2022/11/10 09:32:37;;;;;;;32.77;20.13;;;;;;;12.42;69.18;97825.63;5045982;28;20302;-75
2022/11/10 09:35:24;;;;;;;34.47;19.30;;;;;;;12.44;68.83;97824.66;5044660;28;20607;-75
2022/11/10 09:38:10;;;;;;;29.43;19.17;;;;;;;12.66;68.02;97827.22;5077551;28;20205;-75
2022/11/10 09:41:07;;;;;;;29.33;19.87;;;;;;;12.74;67.96;97815.59;5045519;28;20196;-76
2022/11/10 09:44:04;;;;;;;28.23;19.77;;;;;;;12.89;68.22;97819.31;5044512;28;20326;-77
2022/11/10 09:47:09;;;;;;;30.47;20.30;;;;;;;13.03;67.56;97811.75;5077341;28;20191;-76
2022/11/10 09:50:01;;;;;;;26.87;18.47;;;;;;;13.03;67.81;97822.16;5045699;28;20272;-75
2022/11/10 09:52:48;;;;;;;34.40;20.10;;;;;;;13.05;67.84;97815.16;5045085;28;20208;-75
2022/11/10 09:55:45;;;;;;;30.83;20.33;;;;;;;13.35;67.01;97810.38;5048723;28;20197;-75
2022/11/10 09:58:37;;;;;;;32.77;19.47;;;;;;;13.31;66.97;97808.84;5062341;28;20201;-75
2022/11/10 10:01:33;;;;;;;31.20;20.03;;;;;;;13.48;66.92;97806.31;5048233;28;20699;-75
2022/11/10 10:04:36;;;;;;;31.33;20.30;;;;;;;13.71;66.31;97806.13;5048262;28;20216;-74
2022/11/10 10:07:30;;;;;;;28.73;20.27;;;;;;;13.94;65.78;97805.91;5049235;28;20603;-74
2022/11/10 10:10:30;;;;;;;30.90;19.70;;;;;;;13.65;66.22;97799.44;5048208;28;20193;-75
2022/11/10 10:13:25;;;;;;;34.87;20.80;;;;;;;13.99;65.30;97806.53;5060634;28;20230;-75
2022/11/10 10:16:19;;;;;;;32.43;22.57;;;;;;;14.16;64.79;97801.34;5061774;28;20274;-74
2022/11/10 10:19:20;;;;;;;33.07;20.97;;;;;;;14.22;65.44;97801.06;5048362;28;20192;-74
2022/11/10 10:22:22;;;;;;;30.93;19.03;;;;;;;14.13;65.63;97801.53;5047718;28;20197;-75
2022/11/10 10:25:18;;;;;;;39.73;24.23;;;;;;;14.46;63.95;97797.31;5080632;28;20231;-75
2022/11/10 10:28:03;;;;;;;34.07;22.33;;;;;;;14.48;64.55;97792.03;5048568;28;20735;-76
2022/11/10 10:30:48;;;;;;;32.47;20.63;;;;;;;14.54;63.66;97782.13;5079662;28;20197;-75
2022/11/10 10:33:34;;;;;;;32.83;20.83;;;;;;;14.81;63.63;97794.72;5048666;28;20221;-75
2022/11/10 10:36:29;;;;;;;38.17;22.50;;;;;;;14.69;63.16;97770.94;5047805;28;20272;-76
2022/11/10 10:39:38;;;;;;;31.23;21.27;;;;;;;14.93;62.85;97788.88;5047552;28;20182;-76
2022/11/10 10:42:32;;;;;;;33.17;21.23;;;;;;;14.94;62.75;97787.97;5048900;28;20661;-75
2022/11/10 10:45:28;;;;;;;33.20;21.67;;;;;;;14.84;63.05;97784.97;5048247;28;20229;-76
2022/11/10 10:48:27;;;;;;;34.73;20.97;;;;;;;14.94;62.74;97777.53;5047113;28;20181;-75
2022/11/10 10:51:29;;;;;;;35.00;20.83;;;;;;;15.08;62.56;97775.91;5048745;28;20201;-76
2022/11/10 10:54:30;;;;;;;32.00;20.67;;;;;;;15.26;62.26;97777.53;5080682;28;20194;-77
2022/11/10 10:57:28;;;;;;;35.37;22.13;;;;;;;14.98;62.83;97766.00;5047107;28;20197;-76
2022/11/10 11:00:22;;;;;;;32.03;20.60;;;;;;;15.37;62.13;97759.53;5048163;28;20191;-76
2022/11/10 11:03:36;;;;;;;35.30;21.93;;;;;;;15.67;61.01;97764.91;5048180;28;20355;-76
2022/11/10 11:06:25;;;;;;;31.80;20.17;;;;;;;15.36;62.03;97751.78;5046999;28;20216;-77
2022/11/10 11:09:16;;;;;;;30.73;19.27;;;;;;;15.26;62.07;97756.66;5047093;28;20194;-76
2022/11/10 11:12:10;;;;;;;34.77;20.23;;;;;;;15.42;61.43;97744.50;5047956;28;20185;-76
2022/11/10 11:15:21;;;;;;;30.00;20.37;;;;;;;15.61;61.29;97762.63;5046913;28;20182;-75
2022/11/10 11:18:14;;;;;;;28.60;18.20;;;;;;;15.47;61.99;97749.47;5046812;28;20246;-75
2022/11/10 11:21:11;;;;;;;37.63;20.87;;;;;;;15.80;61.11;97752.88;5080249;28;20197;-79
2022/11/10 11:24:30;;;;;;;33.23;20.23;;;;;;;16.05;60.74;97747.13;5078946;28;20260;-76
2022/11/10 11:27:32;;;;;;;23.33;17.57;;;;;;;16.04;60.59;97743.66;5078576;28;20212;-76
2022/11/10 11:30:30;;;;;;;35.30;20.53;;;;;;;16.21;60.14;97743.56;5046248;28;20208;-74
2022/11/10 11:33:41;;;;;;;30.67;19.73;;;;;;;16.38;59.85;97746.97;5047198;28;20222;-75
2022/11/10 11:36:43;;;;;;;27.67;18.53;;;;;;;16.24;60.08;97743.38;5046048;28;20714;-76
2022/11/10 11:39:31;;;;;;;28.13;18.03;;;;;;;16.39;59.71;97736.41;5046797;28;20608;-76
2022/11/10 11:42:30;;;;;;;27.83;17.57;;;;;;;16.46;59.31;97752.59;5079656;28;20678;-75
2022/11/10 11:45:23;;;;;;;24.53;17.17;;;;;;;16.27;59.82;97735.38;5046302;28;20232;-74
2022/11/10 11:48:32;;;;;;;32.50;19.13;;;;;;;16.43;59.62;97734.47;5046665;28;20264;-75
2022/11/10 11:51:38;;;;;;;31.83;18.67;;;;;;;16.24;60.41;97743.38;5047267;28;20200;-76
2022/11/10 11:54:30;;;;;;;26.27;17.57;;;;;;;16.23;60.16;97746.94;5046721;28;20267;-75
2022/11/10 11:57:29;;;;;;;25.27;18.50;;;;;;;16.44;59.68;97742.25;5045995;28;20267;-74
2022/11/10 12:00:20;;;;;;;58.87;19.17;;;;;;;16.50;58.81;97738.47;5047267;28;20190;-74
2022/11/10 12:03:41;;;;;;;28.90;17.47;;;;;;;16.36;59.20;97720.09;5046644;28;20205;-74
2022/11/10 12:06:53;;;;;;;32.60;17.03;;;;;;;16.67;58.22;97739.13;5040292;28;20198;-76
2022/11/10 12:09:55;;;;;;;22.90;16.27;;;;;;;16.52;58.68;97721.75;5038180;28;20214;-75
2022/11/10 12:12:55;;;;;;;26.47;16.70;;;;;;;16.71;58.17;97726.75;5047129;28;20528;-75
2022/11/10 12:15:50;;;;;;;24.03;16.90;;;;;;;16.60;59.15;97739.59;5076850;28;20202;-75
2022/11/10 12:18:51;;;;;;;31.87;18.23;;;;;;;16.59;59.27;97737.94;5046055;28;20263;-75
2022/11/10 12:21:39;;;;;;;23.37;15.73;;;;;;;16.58;59.25;97742.31;5047010;28;20280;-75
2022/11/10 12:24:36;;;;;;;28.07;17.23;;;;;;;16.60;59.52;97736.97;5045244;28;20228;-75
2022/11/10 12:27:27;;;;;;;28.10;16.70;;;;;;;16.81;59.25;97733.97;5046059;28;20579;-77
2022/11/10 12:30:15;;;;;;;23.17;17.37;;;;;;;16.64;59.39;97728.88;5046708;28;20205;-76
2022/11/10 12:33:14;;;;;;;30.93;18.63;;;;;;;16.84;58.86;97727.69;5057784;28;20237;-75
2022/11/10 12:36:04;;;;;;;30.20;17.70;;;;;;;16.86;59.26;97738.88;5045441;28;20702;-76
2022/11/10 12:38:54;;;;;;;28.13;17.30;;;;;;;16.80;59.25;97739.25;5046800;28;20202;-76
2022/11/10 12:41:58;;;;;;;28.63;19.43;;;;;;;16.79;59.03;97730.59;5077577;28;20522;-75
2022/11/10 12:44:43;;;;;;;27.83;16.90;;;;;;;16.80;58.86;97739.25;5045533;28;20232;-76
2022/11/10 12:47:38;;;;;;;25.37;16.80;;;;;;;16.81;59.13;97733.09;5046973;28;20665;-76
2022/11/10 12:50:26;;;;;;;29.87;18.17;;;;;;;16.63;59.76;97739.44;5045548;28;20204;-76
2022/11/10 12:53:21;;;;;;;27.50;17.20;;;;;;;16.68;59.74;97738.22;5045731;28;20282;-75
2022/11/10 12:56:36;;;;;;;29.83;17.83;;;;;;;16.74;59.45;97740.47;5046298;28;20212;-75
2022/11/10 12:59:25;;;;;;;27.27;17.97;;;;;;;16.62;59.79;97749.03;5045663;28;20194;-76
2022/11/10 13:02:47;;;;;;;31.20;19.17;;;;;;;16.54;60.33;97760.88;5044650;28;20205;-75
2022/11/10 13:05:40;;;;;;;33.90;19.00;;;;;;;16.57;60.28;97742.41;5023407;28;20241;-74
2022/11/10 13:08:41;;;;;;;36.13;18.87;;;;;;;16.51;60.48;97756.66;5046297;28;20194;-75
2022/11/10 13:11:35;;;;;;;40.80;18.67;;;;;;;16.57;60.62;97758.09;5044892;28;20223;-76
2022/11/10 13:14:29;;;;;;;28.23;18.50;;;;;;;16.57;60.50;97748.47;5059210;28;20198;-75
2022/11/10 13:17:27;;;;;;;29.93;18.07;;;;;;;16.47;60.53;97755.13;5046592;28;20189;-75